Catawba Heights, North Carolina
Current Conditions -  °F | °C
As of 2:52 PM on Sunday 23 Nov 2014 (Local Time) from KCLT Reporting Station
Moderate Rain Moderate Rain  
Wind Chill: 51°   Ceiling: 500
Heat Index: 51°   Visibility: 1.7mi
Dew Point: 48°   Wind: 14mph
Humidity: 89%   Direction: 90°E
Pressure: 29.96"   Gusts: 22mph
Location:  35.2342°N, 81.041°W
Report Text: KCLT 231952Z 09012G19KT 1 3/4SM RA BR BKN005 OVC010 11/09 A2996 RMK AO2 SFC VIS 4 SLP144 P0012 T01060089
Loading
Personal Weather Stations






























Interactive Weather Map New forecast layout! Learn more

10-Day Weather Forecast

Advertisements
Track Severe Weather on mobile